Time;durP1;ratioP1;P1;durP2;ratioP2;P2;SDS_P1;SDS_P2;PMS_P1;PMS_P2;Temp;Humidity;BMP_temperature;BMP_pressure;BME280_temperature;BME280_humidity;BME280_pressure;Samples;Min_cycle;Max_cycle;Signal;HPM_P1;HPM_P2
2023/08/04 00:00:18;;;;;;;14.52;5.53;;;;;;;14.46;100.00;100974.91;5095545;28;20494;-49
2023/08/04 00:02:44;;;;;;;17.48;5.55;;;;;;;14.42;100.00;100968.97;5099851;28;20028;-48
2023/08/04 00:05:09;;;;;;;15.07;5.53;;;;;;;14.42;100.00;100966.31;5090907;28;20074;-50
2023/08/04 00:07:36;;;;;;;15.52;5.65;;;;;;;14.40;100.00;100976.31;5094239;28;20162;-49
2023/08/04 00:10:03;;;;;;;12.30;5.45;;;;;;;14.39;100.00;100977.31;5096377;28;20039;-49
2023/08/04 00:12:29;;;;;;;15.40;5.38;;;;;;;14.38;100.00;100975.59;5099529;28;20055;-50
2023/08/04 00:14:54;;;;;;;15.35;5.47;;;;;;;14.37;100.00;100982.78;5095599;28;20063;-49
2023/08/04 00:17:19;;;;;;;16.88;6.10;;;;;;;14.31;100.00;100977.97;5099500;28;20031;-50
2023/08/04 00:19:44;;;;;;;15.02;5.60;;;;;;;14.30;100.00;100986.97;5095068;28;20031;-50
2023/08/04 00:22:10;;;;;;;13.02;5.35;;;;;;;14.28;100.00;100985.44;5100763;28;20020;-51
2023/08/04 00:24:35;;;;;;;11.73;5.40;;;;;;;14.25;100.00;100987.41;5098394;28;20424;-50
2023/08/04 00:27:01;;;;;;;14.55;5.60;;;;;;;14.19;100.00;100982.59;5096100;28;20118;-50
2023/08/04 00:29:27;;;;;;;10.95;5.80;;;;;;;14.19;100.00;100987.13;5093179;28;20035;-50
2023/08/04 00:31:53;;;;;;;14.35;5.47;;;;;;;14.19;100.00;100987.13;5099410;28;20024;-48
2023/08/04 00:34:18;;;;;;;14.85;5.65;;;;;;;14.16;100.00;100987.38;5096001;28;20028;-49
2023/08/04 00:36:45;;;;;;;12.70;5.55;;;;;;;14.13;100.00;100990.31;5097027;28;20404;-48
2023/08/04 00:39:10;;;;;;;10.23;5.35;;;;;;;14.11;100.00;100990.47;5097530;28;20024;-50
2023/08/04 00:41:36;;;;;;;12.50;5.53;;;;;;;14.06;100.00;100992.69;5099485;28;20397;-50
2023/08/04 00:44:02;;;;;;;14.93;5.70;;;;;;;14.04;100.00;100997.34;5098036;28;20028;-51
2023/08/04 00:46:29;;;;;;;17.85;6.20;;;;;;;14.02;100.00;100996.63;5089718;28;20028;-49
2023/08/04 00:48:55;;;;;;;12.70;5.70;;;;;;;14.00;100.00;100999.41;5097626;28;20523;-50
2023/08/04 00:51:21;;;;;;;10.88;5.57;;;;;;;13.96;100.00;101006.03;5098301;28;20024;-49
2023/08/04 00:53:46;;;;;;;11.48;6.22;;;;;;;13.99;100.00;101005.75;5100347;28;20577;-50
2023/08/04 00:56:12;;;;;;;15.00;5.75;;;;;;;13.99;100.00;101007.56;5098892;28;20032;-50
2023/08/04 00:58:38;;;;;;;13.10;5.78;;;;;;;13.93;100.00;101006.28;5101189;28;20027;-50
2023/08/04 01:01:03;;;;;;;11.93;5.38;;;;;;;13.88;100.00;101000.50;5097456;28;20020;-50
2023/08/04 01:03:28;;;;;;;16.15;5.80;;;;;;;13.85;100.00;101008.78;5094762;28;20465;-50
2023/08/04 01:06:25;;;;;;;12.25;6.00;;;;;;;13.90;100.00;101014.56;5095794;28;20021;-50
2023/08/04 01:09:20;;;;;;;15.85;6.38;;;;;;;13.79;100.00;101015.53;5065416;28;20622;-51
2023/08/04 01:11:55;;;;;;;15.80;6.43;;;;;;;13.78;100.00;101007.66;5097908;28;20035;-52
2023/08/04 01:14:22;;;;;;;14.80;6.18;;;;;;;13.75;100.00;101007.91;5103208;28;20434;-51
2023/08/04 01:16:47;;;;;;;11.43;6.10;;;;;;;13.77;100.00;101014.81;5097632;28;20023;-49
2023/08/04 01:19:13;;;;;;;11.23;6.05;;;;;;;13.76;100.00;101022.97;5096717;28;20081;-49
2023/08/04 01:21:40;;;;;;;13.50;6.30;;;;;;;13.68;100.00;101019.13;5086421;28;20039;-52
2023/08/04 01:24:05;;;;;;;10.57;5.30;;;;;;;13.72;100.00;101024.19;5102425;28;20024;-51
2023/08/04 01:26:33;;;;;;;17.10;6.32;;;;;;;13.68;100.00;101021.78;5101001;28;20028;-50
2023/08/04 01:29:00;;;;;;;18.70;6.60;;;;;;;13.67;100.00;101014.78;5099255;28;20487;-52
2023/08/04 01:31:25;;;;;;;11.60;6.32;;;;;;;13.64;100.00;101023.03;5100705;28;20477;-49
2023/08/04 01:33:51;;;;;;;14.32;6.60;;;;;;;13.67;100.00;101024.59;5101569;27;20023;-50
2023/08/04 01:36:16;;;;;;;10.93;6.22;;;;;;;13.63;100.00;101029.34;5101741;28;20061;-50
2023/08/04 01:38:42;;;;;;;16.42;6.53;;;;;;;13.63;100.00;101032.00;5099491;28;20032;-50
2023/08/04 01:41:07;;;;;;;14.00;6.53;;;;;;;13.62;100.00;101034.81;5100878;28;20032;-51
2023/08/04 01:43:32;;;;;;;11.93;6.20;;;;;;;13.64;100.00;101038.22;5100861;28;20050;-50
2023/08/04 01:45:58;;;;;;;13.77;6.60;;;;;;;13.65;100.00;101035.38;5102693;28;20063;-50
2023/08/04 01:48:23;;;;;;;11.88;6.22;;;;;;;13.68;100.00;101036.97;5101432;28;20028;-50
2023/08/04 01:50:48;;;;;;;11.35;6.65;;;;;;;13.65;100.00;101035.38;5101470;28;20477;-50
2023/08/04 01:53:14;;;;;;;16.88;7.20;;;;;;;13.66;100.00;101037.09;5098954;28;20489;-50
2023/08/04 01:55:39;;;;;;;11.55;6.40;;;;;;;13.68;100.00;101042.31;5096456;28;20473;-50
2023/08/04 01:58:04;;;;;;;14.25;6.80;;;;;;;13.67;100.00;101040.59;5101098;28;20032;-49
2023/08/04 02:00:29;;;;;;;13.15;6.53;;;;;;;13.69;100.00;101039.50;5097935;28;20065;-49
2023/08/04 02:02:55;;;;;;;10.43;6.25;;;;;;;13.69;100.00;101044.00;5104627;28;20027;-50
2023/08/04 02:05:20;;;;;;;17.38;6.93;;;;;;;13.72;100.00;101042.88;5095710;28;20359;-49
2023/08/04 02:07:45;;;;;;;18.60;7.40;;;;;;;13.71;100.00;101043.88;5100469;28;20035;-49
2023/08/04 02:10:11;;;;;;;12.57;6.45;;;;;;;13.69;100.00;101039.50;5096017;28;20040;-50
2023/08/04 02:12:36;;;;;;;14.98;6.65;;;;;;;13.68;100.00;101042.31;5102945;28;20406;-50
2023/08/04 02:15:01;;;;;;;14.57;7.13;;;;;;;13.68;100.00;101048.47;5100126;28;20073;-49
2023/08/04 02:17:27;;;;;;;15.95;6.88;;;;;;;13.67;100.00;101043.25;5099369;28;20427;-50
2023/08/04 02:19:52;;;;;;;13.43;7.05;;;;;;;13.67;100.00;101045.94;5102064;27;20063;-51
2023/08/04 02:22:17;;;;;;;13.27;6.75;;;;;;;13.69;100.00;101052.00;5096187;28;20027;-51
2023/08/04 02:24:43;;;;;;;11.65;6.72;;;;;;;13.68;100.00;101052.97;5092749;28;20031;-52
2023/08/04 02:27:08;;;;;;;13.10;6.38;;;;;;;13.71;100.00;101057.22;5093014;28;20024;-50
2023/08/04 02:29:33;;;;;;;11.10;5.95;;;;;;;13.69;100.00;101047.50;5098479;28;20089;-53
2023/08/04 02:31:58;;;;;;;13.60;6.80;;;;;;;13.68;100.00;101058.31;5101458;28;20102;-52
2023/08/04 02:34:24;;;;;;;12.32;6.60;;;;;;;13.67;100.00;101062.81;5097249;28;20101;-50
2023/08/04 02:36:49;;;;;;;14.60;6.55;;;;;;;13.67;100.00;101056.63;5099589;28;20080;-50
2023/08/04 02:39:14;;;;;;;12.68;6.32;;;;;;;13.66;100.00;101055.78;5098735;28;20023;-52
2023/08/04 02:41:40;;;;;;;16.23;7.78;;;;;;;13.65;100.00;101056.75;5098788;28;20067;-53
2023/08/04 02:44:06;;;;;;;13.52;6.07;;;;;;;13.66;100.00;101057.59;5098943;28;20022;-50
2023/08/04 02:46:31;;;;;;;14.52;6.30;;;;;;;13.65;100.00;101062.06;5096077;28;20024;-50
2023/08/04 02:48:57;;;;;;;14.48;5.75;;;;;;;13.64;100.00;101063.06;5100537;28;20023;-50
2023/08/04 02:51:22;;;;;;;10.82;6.25;;;;;;;13.63;100.00;101058.69;5094799;28;20028;-49
2023/08/04 02:53:49;;;;;;;11.38;6.72;;;;;;;13.62;100.00;101057.03;5093312;28;20485;-50
2023/08/04 02:56:18;;;;;;;12.73;6.32;;;;;;;13.63;100.00;101060.53;5102025;28;20035;-51
2023/08/04 02:58:46;;;;;;;12.60;6.13;;;;;;;13.62;100.00;101064.16;5097043;28;20419;-52
2023/08/04 03:01:12;;;;;;;16.10;7.13;;;;;;;13.61;100.00;101059.84;5101077;28;20023;-49
2023/08/04 03:03:38;;;;;;;16.08;7.00;;;;;;;13.57;100.00;101061.06;5096696;28;20099;-49
2023/08/04 03:06:03;;;;;;;14.60;7.22;;;;;;;13.59;100.00;101064.44;5098052;28;20446;-50
2023/08/04 03:08:31;;;;;;;13.52;6.60;;;;;;;13.57;100.00;101058.38;5098489;28;20043;-51
2023/08/04 03:10:56;;;;;;;15.68;6.57;;;;;;;13.56;100.00;101064.72;5098308;28;20020;-51
2023/08/04 03:13:22;;;;;;;15.70;7.18;;;;;;;13.55;100.00;101058.50;5094490;28;20081;-50
2023/08/04 03:15:54;;;;;;;13.13;6.90;;;;;;;13.56;100.00;101073.56;5102599;28;20546;-49
2023/08/04 03:18:19;;;;;;;15.48;7.13;;;;;;;13.54;100.00;101063.97;5099797;28;20020;-49
2023/08/04 03:20:44;;;;;;;11.73;6.82;;;;;;;13.55;100.00;101066.53;5099645;28;20027;-50
2023/08/04 03:23:09;;;;;;;9.90;6.00;;;;;;;13.56;100.00;101070.06;5096648;28;20482;-50
2023/08/04 03:25:35;;;;;;;12.65;6.50;;;;;;;13.57;100.00;101074.41;5095565;28;20028;-49
2023/08/04 03:28:00;;;;;;;13.90;6.13;;;;;;;13.59;100.00;101069.78;5095340;28;20045;-50
2023/08/04 03:30:26;;;;;;;15.50;7.00;;;;;;;13.57;100.00;101077.91;5093964;28;20097;-50
2023/08/04 03:32:51;;;;;;;15.30;6.22;;;;;;;13.59;100.00;101080.44;5092683;28;20062;-51
2023/08/04 03:35:17;;;;;;;14.50;6.40;;;;;;;13.62;100.00;101080.19;5091366;28;20032;-50
2023/08/04 03:37:42;;;;;;;11.73;6.80;;;;;;;13.59;100.00;101083.13;5095305;28;20028;-54
2023/08/04 03:40:08;;;;;;;12.52;5.75;;;;;;;13.60;100.00;101088.31;5092554;28;20024;-52
2023/08/04 03:42:38;;;;;;;11.90;6.20;;;;;;;13.60;100.00;101082.97;5098773;28;20127;-50
2023/08/04 03:45:04;;;;;;;15.07;6.47;;;;;;;13.60;100.00;101082.97;5098308;28;20035;-51
2023/08/04 03:47:29;;;;;;;13.38;6.88;;;;;;;13.59;100.00;101078.66;5094420;28;20031;-51
2023/08/04 03:49:56;;;;;;;11.05;6.47;;;;;;;13.60;100.00;101072.31;5096195;28;20024;-50
2023/08/04 03:52:21;;;;;;;14.55;6.70;;;;;;;13.60;100.00;101080.31;5096368;28;20077;-49
2023/08/04 03:54:46;;;;;;;15.68;6.53;;;;;;;13.62;100.00;101086.41;5097861;28;20031;-49
2023/08/04 03:57:12;;;;;;;11.20;6.30;;;;;;;13.60;100.00;101088.31;5095676;28;20478;-50
2023/08/04 03:59:37;;;;;;;16.00;7.57;;;;;;;13.58;100.00;101086.78;5099674;28;20028;-50
2023/08/04 04:02:02;;;;;;;12.85;6.82;;;;;;;13.57;100.00;101091.25;5095964;28;20024;-51
2023/08/04 04:04:27;;;;;;;11.00;6.40;;;;;;;13.53;100.00;101089.84;5092336;28;20080;-51
2023/08/04 04:06:53;;;;;;;10.32;5.85;;;;;;;13.52;100.00;101090.78;5092402;28;20032;-51
2023/08/04 04:09:18;;;;;;;10.70;6.50;;;;;;;13.47;100.00;101088.53;5100147;28;20027;-50
2023/08/04 04:11:43;;;;;;;13.55;6.80;;;;;;;13.44;100.00;101094.13;5094896;28;20157;-51
2023/08/04 04:14:10;;;;;;;10.45;5.97;;;;;;;13.37;100.00;101087.59;5099296;28;20027;-51
2023/08/04 04:16:36;;;;;;;14.95;6.57;;;;;;;13.35;100.00;101092.22;5091148;28;20028;-51
2023/08/04 04:19:01;;;;;;;13.75;6.63;;;;;;;13.31;100.00;101093.44;5093908;28;20590;-51
2023/08/04 04:21:26;;;;;;;10.98;7.05;;;;;;;13.28;100.00;101096.38;5097564;28;20028;-50
2023/08/04 04:23:52;;;;;;;15.10;6.80;;;;;;;13.24;100.00;101095.78;5093878;28;20063;-50
2023/08/04 04:26:17;;;;;;;13.82;6.95;;;;;;;13.23;100.00;101104.75;5100009;28;20065;-50
2023/08/04 04:28:42;;;;;;;12.23;6.72;;;;;;;13.19;100.00;101110.47;5095755;28;20030;-51
2023/08/04 04:31:07;;;;;;;12.88;6.53;;;;;;;13.14;100.00;101105.53;5090296;28;20308;-54
2023/08/04 04:33:33;;;;;;;12.85;6.97;;;;;;;13.15;100.00;101104.53;5102336;28;20124;-52
2023/08/04 04:35:58;;;;;;;10.82;6.28;;;;;;;13.13;100.00;101114.50;5095677;28;20051;-51
2023/08/04 04:38:28;;;;;;;12.68;7.45;;;;;;;13.10;100.00;101115.59;5093172;28;20035;-54
2023/08/04 04:41:01;;;;;;;11.02;6.93;;;;;;;13.07;100.00;101110.53;5094665;28;20028;-54
2023/08/04 04:43:26;;;;;;;14.30;7.25;;;;;;;13.05;100.00;101108.97;5094780;28;20468;-51
2023/08/04 04:45:52;;;;;;;14.77;7.65;;;;;;;13.02;100.00;101109.22;5095283;28;20055;-54
2023/08/04 04:48:18;;;;;;;13.88;7.47;;;;;;;12.99;100.00;101114.78;5084782;28;20110;-52
2023/08/04 04:50:44;;;;;;;15.95;7.55;;;;;;;12.99;100.00;101122.78;5095791;28;20021;-54
2023/08/04 04:53:09;;;;;;;13.77;7.78;;;;;;;12.95;100.00;101116.88;5099735;28;20036;-55
2023/08/04 04:55:35;;;;;;;15.55;8.43;;;;;;;12.98;100.00;101121.13;5096234;28;20035;-52
2023/08/04 04:58:01;;;;;;;11.18;7.80;;;;;;;12.99;100.00;101121.00;5092820;28;20039;-54
2023/08/04 05:00:26;;;;;;;13.35;7.78;;;;;;;12.99;100.00;101125.44;5098121;28;20107;-52
2023/08/04 05:02:51;;;;;;;13.82;7.53;;;;;;;13.01;100.00;101131.53;5099388;28;20028;-52
2023/08/04 05:05:17;;;;;;;16.25;7.90;;;;;;;13.01;100.00;101132.38;5096123;28;20031;-52
2023/08/04 05:07:42;;;;;;;14.13;7.63;;;;;;;13.01;100.00;101140.38;5095900;28;20024;-52
2023/08/04 05:10:08;;;;;;;14.23;8.07;;;;;;;13.02;100.00;101135.88;5095764;28;20020;-53
2023/08/04 05:12:34;;;;;;;11.85;7.28;;;;;;;13.07;100.00;101139.88;5098658;28;20023;-53
2023/08/04 05:14:59;;;;;;;15.23;8.45;;;;;;;13.11;100.00;101138.63;5100197;28;20059;-52
2023/08/04 05:17:24;;;;;;;14.82;8.57;;;;;;;13.15;100.00;101139.22;5098733;28;20377;-55
2023/08/04 05:19:50;;;;;;;14.48;7.38;;;;;;;13.19;100.00;101146.00;5089798;28;20032;-52
2023/08/04 05:22:15;;;;;;;16.33;8.70;;;;;;;13.26;100.00;101146.34;5098305;28;20028;-54
2023/08/04 05:24:41;;;;;;;14.88;8.63;;;;;;;13.28;100.00;101160.38;5095736;28;20103;-52
2023/08/04 05:27:06;;;;;;;15.18;9.05;;;;;;;13.38;100.00;101152.50;5098872;28;20020;-55
2023/08/04 05:29:32;;;;;;;12.55;8.55;;;;;;;13.45;100.00;101151.84;5093632;28;20474;-53
2023/08/04 05:31:57;;;;;;;15.38;8.38;;;;;;;13.54;100.00;101154.72;5091652;28;20028;-52
2023/08/04 05:34:22;;;;;;;17.05;9.15;;;;;;;13.62;100.00;101161.13;5093290;28;20020;-52
2023/08/04 05:36:48;;;;;;;19.42;9.40;;;;;;;13.68;100.00;101165.91;5099970;28;20031;-52
2023/08/04 05:39:13;;;;;;;14.32;8.65;;;;;;;13.76;100.00;101161.78;5095212;28;20749;-53
2023/08/04 05:41:38;;;;;;;13.38;8.55;;;;;;;13.80;100.00;101158.69;5090337;28;20099;-52
2023/08/04 05:44:04;;;;;;;17.73;8.90;;;;;;;13.88;100.00;101158.88;5090227;28;20081;-52
2023/08/04 05:46:29;;;;;;;19.55;9.48;;;;;;;13.96;100.00;101157.41;5096891;28;20496;-55
2023/08/04 05:48:54;;;;;;;16.65;9.23;;;;;;;14.01;100.00;101158.69;5094287;28;20032;-52
2023/08/04 05:51:20;;;;;;;19.10;9.30;;;;;;;14.07;100.00;101162.63;5094710;28;20025;-52
2023/08/04 05:53:45;;;;;;;15.77;9.30;;;;;;;14.13;100.00;101162.13;5093984;28;20055;-53
2023/08/04 05:56:10;;;;;;;17.83;9.60;;;;;;;14.19;100.00;101174.13;5095831;28;20546;-53
2023/08/04 05:58:36;;;;;;;17.52;9.13;;;;;;;14.23;100.00;101175.53;5093830;28;20025;-50
2023/08/04 06:01:01;;;;;;;18.75;9.23;;;;;;;14.33;100.00;101175.56;5095905;28;20107;-50
2023/08/04 06:03:26;;;;;;;13.80;8.95;;;;;;;14.40;100.00;101176.72;5098045;28;20024;-51
2023/08/04 06:05:52;;;;;;;17.15;9.30;;;;;;;14.47;100.00;101180.56;5096222;28;20061;-50
2023/08/04 06:08:17;;;;;;;13.95;9.30;;;;;;;14.53;100.00;101182.69;5090822;28;20059;-50
2023/08/04 06:10:42;;;;;;;20.15;9.90;;;;;;;14.64;100.00;101178.25;5095072;28;20116;-51
2023/08/04 06:13:08;;;;;;;16.45;9.88;;;;;;;14.77;100.00;101186.84;5093429;28;20410;-48
2023/08/04 06:15:33;;;;;;;16.60;9.10;;;;;;;14.92;100.00;101180.16;5097550;28;20028;-49
2023/08/04 06:17:59;;;;;;;15.40;9.95;;;;;;;15.06;100.00;101183.44;5089625;28;20040;-48
2023/08/04 06:20:24;;;;;;;17.40;10.23;;;;;;;15.18;100.00;101191.16;5098850;28;20048;-48
2023/08/04 06:22:50;;;;;;;14.35;8.20;;;;;;;15.29;100.00;101190.19;5099838;28;20040;-50
2023/08/04 06:25:15;;;;;;;13.80;9.02;;;;;;;15.47;100.00;101193.03;5094363;28;20028;-50
2023/08/04 06:27:41;;;;;;;14.15;8.60;;;;;;;15.62;100.00;101203.28;5100054;28;20030;-49
2023/08/04 06:30:07;;;;;;;19.45;8.27;;;;;;;15.77;100.00;101199.25;5095867;28;20064;-49
2023/08/04 06:32:33;;;;;;;14.85;7.95;;;;;;;15.97;100.00;101202.75;5098523;28;20484;-50
2023/08/04 06:34:58;;;;;;;11.55;7.47;;;;;;;16.12;100.00;101210.31;5094361;28;20127;-49
2023/08/04 06:37:24;;;;;;;12.20;7.03;;;;;;;16.31;100.00;101220.16;5101497;28;20118;-49
2023/08/04 06:39:50;;;;;;;13.98;7.32;;;;;;;16.46;100.00;101216.81;5095768;28;20448;-51
2023/08/04 06:42:16;;;;;;;14.02;7.38;;;;;;;16.64;100.00;101219.59;5098370;28;20383;-50
2023/08/04 06:44:41;;;;;;;15.52;6.90;;;;;;;16.79;100.00;101221.78;5090051;28;20489;-50
2023/08/04 06:47:07;;;;;;;14.85;6.97;;;;;;;17.00;100.00;101221.53;5099771;28;20027;-50
2023/08/04 06:49:34;;;;;;;16.65;7.10;;;;;;;17.27;100.00;101222.50;5098308;28;20035;-50
2023/08/04 06:52:00;;;;;;;14.90;6.95;;;;;;;17.56;100.00;101227.66;5100840;28;20028;-50
2023/08/04 06:54:25;;;;;;;13.65;6.43;;;;;;;17.81;100.00;101226.00;5096563;28;20103;-48
2023/08/04 06:56:50;;;;;;;13.30;6.07;;;;;;;17.89;100.00;101234.19;5097973;28;20028;-50
2023/08/04 06:59:15;;;;;;;9.88;6.22;;;;;;;17.93;100.00;101232.00;5100823;28;20439;-50
2023/08/04 07:01:41;;;;;;;12.02;6.15;;;;;;;18.02;100.00;101236.47;5096183;28;20478;-49
2023/08/04 07:04:06;;;;;;;9.50;6.07;;;;;;;18.02;100.00;101224.84;5097134;28;20107;-50
2023/08/04 07:06:31;;;;;;;11.73;6.50;;;;;;;18.01;100.00;101234.78;5098278;28;20027;-50
2023/08/04 07:08:57;;;;;;;9.55;5.93;;;;;;;18.04;100.00;101247.06;5097449;28;20020;-50
2023/08/04 07:11:22;;;;;;;11.57;5.68;;;;;;;18.10;100.00;101249.09;5097369;28;20106;-54
2023/08/04 07:13:47;;;;;;;14.27;6.18;;;;;;;18.20;100.00;101249.00;5096549;28;20103;-51
2023/08/04 07:16:13;;;;;;;11.48;6.13;;;;;;;18.23;100.00;101254.91;5094809;28;20474;-50
2023/08/04 07:18:39;;;;;;;12.05;5.45;;;;;;;18.20;100.00;101247.19;5095557;28;20025;-52
2023/08/04 07:21:12;;;;;;;10.95;6.07;;;;;;;18.35;100.00;101252.78;5081157;28;20391;-53
2023/08/04 07:23:39;;;;;;;10.50;6.10;;;;;;;18.55;100.00;101250.75;5095389;28;20027;-52
2023/08/04 07:26:05;;;;;;;12.88;5.97;;;;;;;18.81;100.00;101249.84;5095240;28;20031;-50
2023/08/04 07:28:32;;;;;;;12.45;6.18;;;;;;;18.95;99.46;101254.66;5095780;28;20038;-50
2023/08/04 07:30:59;;;;;;;10.45;4.90;;;;;;;18.97;96.89;101251.81;5092307;28;20036;-51
2023/08/04 07:33:26;;;;;;;9.13;4.47;;;;;;;18.98;97.20;101253.47;5095953;28;20507;-53
2023/08/04 07:35:55;;;;;;;7.80;4.18;;;;;;;18.93;95.02;101251.28;5089421;28;20107;-52
2023/08/04 07:38:21;;;;;;;7.18;4.15;;;;;;;18.94;95.22;101261.03;5093396;28;20588;-53
2023/08/04 07:40:47;;;;;;;9.27;4.57;;;;;;;19.02;93.65;101262.94;5099701;28;20047;-55
2023/08/04 07:43:13;;;;;;;9.77;4.55;;;;;;;19.06;94.86;101258.06;5093256;28;20048;-54
2023/08/04 07:45:39;;;;;;;10.20;4.60;;;;;;;19.00;95.04;101267.63;5096135;28;20020;-54
2023/08/04 07:48:04;;;;;;;12.02;4.93;;;;;;;18.96;94.46;101267.09;5096959;28;20032;-54
2023/08/04 07:50:30;;;;;;;8.82;4.80;;;;;;;19.01;95.55;101272.00;5095957;28;20031;-55
2023/08/04 07:52:55;;;;;;;9.73;4.55;;;;;;;18.97;95.92;101265.28;5093703;28;20035;-55
2023/08/04 07:55:21;;;;;;;8.10;3.95;;;;;;;18.89;95.00;101268.75;5093813;28;20016;-53
2023/08/04 07:57:47;;;;;;;9.27;4.00;;;;;;;18.91;94.68;101276.69;5093014;27;20500;-54
2023/08/04 08:00:13;;;;;;;7.97;4.15;;;;;;;18.92;95.15;101275.66;5093361;28;20035;-52
2023/08/04 08:02:38;;;;;;;8.90;4.07;;;;;;;18.88;96.04;101275.13;5088904;28;20127;-54
2023/08/04 08:05:04;;;;;;;7.45;4.30;;;;;;;18.91;93.96;101280.19;5097025;28;20019;-55
2023/08/04 08:07:29;;;;;;;8.95;3.67;;;;;;;18.90;93.16;101275.84;5094912;28;20626;-53
2023/08/04 08:09:54;;;;;;;11.73;3.77;;;;;;;18.95;96.11;101286.97;5089252;28;20119;-54
2023/08/04 08:12:19;;;;;;;11.20;3.50;;;;;;;18.95;94.22;101278.88;5097488;28;20278;-55
2023/08/04 08:14:45;;;;;;;8.82;3.40;;;;;;;18.94;95.48;101277.19;5096687;28;20035;-53
2023/08/04 08:17:10;;;;;;;7.78;3.10;;;;;;;19.01;91.73;101280.06;5092769;28;20035;-56
2023/08/04 08:19:35;;;;;;;5.63;2.80;;;;;;;19.13;91.63;101281.47;5094361;28;20154;-54
2023/08/04 08:22:01;;;;;;;7.50;3.00;;;;;;;19.25;90.79;101284.69;5096428;28;20038;-53
2023/08/04 08:24:26;;;;;;;6.15;2.80;;;;;;;19.37;87.17;101294.16;5095305;28;20060;-53
2023/08/04 08:26:52;;;;;;;7.75;3.00;;;;;;;19.73;89.60;101293.03;5099296;28;20028;-53
2023/08/04 08:29:17;;;;;;;10.77;3.40;;;;;;;19.87;87.94;101289.72;5094370;28;20027;-55
2023/08/04 08:31:42;;;;;;;8.90;3.17;;;;;;;19.93;87.95;101296.28;5101381;28;20038;-53
2023/08/04 08:34:08;;;;;;;3.78;2.30;;;;;;;20.02;85.43;101298.00;5095383;28;20023;-54
2023/08/04 08:36:33;;;;;;;6.97;2.53;;;;;;;20.01;86.46;101296.28;5095324;28;20042;-52
2023/08/04 08:38:58;;;;;;;4.65;2.80;;;;;;;20.10;83.80;101300.69;5102566;28;20020;-55
2023/08/04 08:41:24;;;;;;;4.68;2.58;;;;;;;20.08;85.07;101300.00;5094693;28;20032;-54
2023/08/04 08:43:49;;;;;;;7.68;3.30;;;;;;;20.06;85.50;101301.19;5095290;28;20050;-54
2023/08/04 08:46:15;;;;;;;6.55;2.92;;;;;;;20.05;85.69;101305.75;5096788;28;20028;-53
2023/08/04 08:48:44;;;;;;;4.25;2.90;;;;;;;20.10;88.17;101307.91;5093918;28;20098;-52
2023/08/04 08:51:18;;;;;;;;;;;;;;;20.24;90.56;101318.03;5097797;28;20066;-53
2023/08/04 08:53:47;;;;;;;9.30;3.03;;;;;;;20.01;86.92;101317.03;5090770;28;19911;-55
2023/08/04 08:56:13;;;;;;;11.25;2.90;;;;;;;20.04;85.66;101317.53;5100363;28;20027;-52
2023/08/04 08:58:40;;;;;;;6.32;2.83;;;;;;;20.09;86.18;101315.16;5095883;28;20074;-53
2023/08/04 09:01:05;;;;;;;4.85;3.05;;;;;;;20.29;84.14;101312.97;5095137;28;20085;-52
2023/08/04 09:03:34;;;;;;;7.45;2.97;;;;;;;20.40;85.47;101311.78;5091111;28;20020;-55
2023/08/04 09:05:59;;;;;;;4.32;2.55;;;;;;;20.51;84.93;101319.50;5097065;28;20020;-54
2023/08/04 09:08:25;;;;;;;4.38;2.50;;;;;;;20.64;82.95;101315.47;5095264;28;20077;-52
2023/08/04 09:10:50;;;;;;;4.60;2.60;;;;;;;21.03;82.34;101320.06;5099721;28;20122;-52
2023/08/04 09:13:15;;;;;;;5.22;2.30;;;;;;;21.04;83.04;101319.91;5095989;28;20151;-54
2023/08/04 09:15:53;;;;;;;5.45;2.60;;;;;;;20.99;83.65;101325.00;5097117;28;20095;-55
2023/08/04 09:18:25;;;;;;;5.07;2.38;;;;;;;20.90;85.02;101328.75;5086710;28;20055;-55
2023/08/04 09:21:09;;;;;;;7.70;2.40;;;;;;;20.72;86.80;101338.91;5090875;28;20040;-54
2023/08/04 09:23:36;;;;;;;4.45;2.20;;;;;;;20.62;83.52;101341.78;5072758;28;20036;-51
2023/08/04 09:26:01;;;;;;;2.33;2.00;;;;;;;20.54;87.63;101339.91;5091696;28;20134;-51
2023/08/04 09:28:27;;;;;;;5.53;2.20;;;;;;;20.47;87.36;101338.94;5097947;28;20127;-52
2023/08/04 09:31:07;;;;;;;5.38;2.08;;;;;;;20.39;87.60;101334.38;5094138;28;20429;-53
2023/08/04 09:33:33;;;;;;;3.35;1.98;;;;;;;20.37;86.97;101336.41;5094627;28;20024;-52
2023/08/04 09:36:10;;;;;;;4.10;1.83;;;;;;;20.29;89.07;101331.84;5096722;28;20393;-52
2023/08/04 09:38:37;;;;;;;4.07;2.05;;;;;;;20.32;89.07;101334.22;5094078;28;20115;-53
2023/08/04 09:41:07;;;;;;;4.95;2.20;;;;;;;20.35;87.06;101335.75;5097292;28;20074;-53
2023/08/04 09:43:33;;;;;;;6.63;2.63;;;;;;;20.61;89.21;101343.63;5096023;28;20089;-52
2023/08/04 09:46:03;;;;;;;3.58;2.10;;;;;;;20.68;86.03;101343.81;5102059;28;20099;-52
2023/08/04 09:48:29;;;;;;;4.28;1.92;;;;;;;20.70;85.57;101348.03;5099140;28;20447;-52
2023/08/04 09:51:14;;;;;;;5.40;1.67;;;;;;;20.77;85.17;101337.38;5101865;28;20106;-53
2023/08/04 09:53:45;;;;;;;4.13;1.95;;;;;;;20.70;85.31;101339.09;5094964;28;20062;-53
2023/08/04 09:56:11;;;;;;;4.50;1.98;;;;;;;20.85;82.70;101336.50;5097608;28;20032;-52
2023/08/04 09:58:38;;;;;;;3.67;1.70;;;;;;;20.94;85.02;101337.34;5092132;28;20020;-53
2023/08/04 10:01:03;;;;;;;4.88;1.83;;;;;;;20.94;81.26;101335.47;5096163;28;20024;-52
2023/08/04 10:03:29;;;;;;;4.00;1.63;;;;;;;20.92;82.54;101337.50;5097882;28;20046;-49
2023/08/04 10:06:00;;;;;;;4.28;1.90;;;;;;;20.91;82.72;101348.47;5096370;28;20491;-49
2023/08/04 10:08:29;;;;;;;5.43;1.65;;;;;;;20.74;80.31;101343.13;5092202;28;20127;-50
2023/08/04 10:10:56;;;;;;;7.80;1.77;;;;;;;20.64;85.15;101350.56;5092685;28;20481;-49
2023/08/04 10:13:23;;;;;;;4.32;1.58;;;;;;;20.39;85.17;101355.97;5101692;28;20057;-50
2023/08/04 10:15:49;;;;;;;5.88;1.67;;;;;;;20.33;87.31;101352.09;5089955;28;20024;-50
2023/08/04 10:18:14;;;;;;;2.90;1.40;;;;;;;20.20;90.16;101349.06;5095694;28;20035;-50
2023/08/04 10:20:40;;;;;;;3.33;1.40;;;;;;;20.14;88.80;101358.66;5092416;28;20024;-50
2023/08/04 10:23:05;;;;;;;4.55;1.73;;;;;;;20.19;88.19;101344.66;5097084;28;20030;-50
2023/08/04 10:25:31;;;;;;;1.60;1.33;;;;;;;20.23;90.98;101339.78;5086695;28;20032;-50
2023/08/04 10:27:57;;;;;;;3.67;1.67;;;;;;;20.45;90.98;101339.09;5096056;27;20400;-50
2023/08/04 10:30:24;;;;;;;5.47;1.65;;;;;;;20.90;89.88;101342.25;5097766;28;20031;-49
2023/08/04 10:32:50;;;;;;;5.15;2.78;;;;;;;21.08;86.80;101344.69;5098425;28;20455;-49
2023/08/04 10:35:21;;;;;;;4.20;1.85;;;;;;;21.39;88.24;101346.59;5098819;28;20023;-50
2023/08/04 10:37:53;;;;;;;6.22;1.80;;;;;;;21.75;87.14;101338.81;5098305;28;20032;-50
2023/08/04 10:40:32;;;;;;;5.45;1.67;;;;;;;21.95;84.95;101351.88;5091229;28;20024;-49
2023/08/04 10:43:06;;;;;;;7.38;1.63;;;;;;;22.18;81.83;101346.44;5093520;28;20094;-50
2023/08/04 10:45:52;;;;;;;4.60;1.52;;;;;;;22.21;81.37;101356.06;5091146;28;20031;-50
2023/08/04 10:48:21;;;;;;;4.15;1.60;;;;;;;22.07;78.38;101363.13;5096794;28;20557;-49
2023/08/04 10:50:50;;;;;;;4.07;1.70;;;;;;;21.88;78.84;101362.53;5093635;28;20038;-50
2023/08/04 10:53:16;;;;;;;5.55;1.52;;;;;;;21.95;80.37;101363.53;5093658;28;20478;-52
2023/08/04 10:55:52;;;;;;;3.72;1.55;;;;;;;21.92;80.80;101365.75;5099450;28;20023;-50
2023/08/04 10:58:18;;;;;;;4.72;1.80;;;;;;;21.83;78.90;101366.81;5092769;28;20024;-50
2023/08/04 11:00:44;;;;;;;3.97;1.70;;;;;;;21.74;81.15;101374.97;5096684;28;20016;-50
2023/08/04 11:03:36;;;;;;;6.20;2.08;;;;;;;21.82;82.20;101368.69;5098169;28;20025;-53
2023/08/04 11:06:03;;;;;;;4.10;1.80;;;;;;;22.02;78.40;101371.75;5093818;28;20036;-50
2023/08/04 11:08:29;;;;;;;4.47;1.63;;;;;;;22.15;78.97;101373.88;5089097;28;20158;-50
2023/08/04 11:10:56;;;;;;;4.55;1.67;;;;;;;22.04;78.50;101369.72;5090385;28;20111;-50